createdAt,value
2022-11-08T00:02:07.876Z,74.95
2022-11-08T00:05:29.780Z,74.95
2022-11-08T00:08:51.550Z,74.98
2022-11-08T00:12:13.210Z,74.99
2022-11-08T00:15:16.208Z,75.01
2022-11-08T00:18:19.511Z,75.06
2022-11-08T00:21:23.314Z,75.10
2022-11-08T00:24:26.490Z,75.14
2022-11-08T00:27:29.525Z,75.16
2022-11-08T00:30:32.517Z,75.19
2022-11-08T00:33:35.791Z,75.21
2022-11-08T00:36:38.802Z,75.22
2022-11-08T00:39:42.078Z,75.23
2022-11-08T00:42:45.084Z,75.27
2022-11-08T00:45:48.084Z,75.22
2022-11-08T00:48:51.046Z,75.24
2022-11-08T00:51:54.322Z,75.23
2022-11-08T00:54:57.314Z,75.21
2022-11-08T00:58:00.910Z,75.20
2022-11-08T01:01:12.602Z,75.14
2022-11-08T01:04:18.037Z,75.19
2022-11-08T01:07:21.004Z,75.22
2022-11-08T01:10:26.673Z,75.25
2022-11-08T01:13:30.345Z,75.29
2022-11-08T01:16:35.009Z,75.29
2022-11-08T01:19:38.006Z,75.33
2022-11-08T01:22:41.042Z,75.33
2022-11-08T01:25:46.249Z,75.41
2022-11-08T01:28:49.547Z,75.55
2022-11-08T01:31:52.507Z,75.66
2022-11-08T01:34:55.531Z,75.65
2022-11-08T01:37:59.841Z,75.54
2022-11-08T01:41:03.260Z,75.61
2022-11-08T01:44:06.289Z,75.55
2022-11-08T01:47:09.288Z,75.43
2022-11-08T01:50:16.993Z,75.31
2022-11-08T01:53:20.230Z,75.27
2022-11-08T01:56:23.242Z,75.21
2022-11-08T01:59:26.695Z,75.18
2022-11-08T02:02:30.695Z,75.31
2022-11-08T02:05:33.919Z,75.35
2022-11-08T02:08:42.248Z,75.38
2022-11-08T02:11:47.661Z,75.44
2022-11-08T02:14:51.115Z,75.48
2022-11-08T02:17:55.138Z,75.54
2022-11-08T02:21:08.681Z,75.61
2022-11-08T02:24:14.024Z,75.87
2022-11-08T02:27:17.194Z,76.09
2022-11-08T02:30:20.318Z,76.26
2022-11-08T02:33:23.769Z,76.37
2022-11-08T02:36:26.927Z,76.44
2022-11-08T02:39:30.720Z,76.38
2022-11-08T02:42:33.994Z,76.49
2022-11-08T02:45:36.961Z,76.46
2022-11-08T02:48:39.927Z,76.52
2022-11-08T02:51:42.887Z,76.56
2022-11-08T02:54:45.894Z,76.53
2022-11-08T02:57:48.930Z,76.50
2022-11-08T03:00:51.973Z,76.61
2022-11-08T03:03:55.013Z,76.68
2022-11-08T03:06:57.982Z,76.65
2022-11-08T03:10:00.923Z,76.66
2022-11-08T03:13:05.598Z,76.73
2022-11-08T03:16:08.750Z,76.78
2022-11-08T03:19:12.208Z,76.76
2022-11-08T03:22:15.442Z,76.75
2022-11-08T03:25:18.409Z,76.71
2022-11-08T03:28:23.096Z,76.82
2022-11-08T03:31:26.466Z,76.91
2022-11-08T03:34:29.505Z,77.01
2022-11-08T03:37:32.509Z,77.13
2022-11-08T03:40:35.498Z,77.16
2022-11-08T03:43:38.474Z,77.21
2022-11-08T03:46:41.653Z,77.19
2022-11-08T03:49:44.750Z,77.22
2022-11-08T03:52:50.451Z,77.28
2022-11-08T03:55:53.602Z,77.29
2022-11-08T03:58:56.730Z,77.39
2022-11-08T04:01:59.937Z,77.45
2022-11-08T04:05:03.465Z,77.46
2022-11-08T04:08:06.539Z,77.44
2022-11-08T04:11:27.910Z,77.41
2022-11-08T04:14:49.549Z,77.40
2022-11-08T04:18:12.659Z,77.36
2022-11-08T04:21:21.809Z,77.42
2022-11-08T04:24:25.155Z,77.41
2022-11-08T04:27:29.407Z,77.40
2022-11-08T04:30:33.048Z,77.40
2022-11-08T04:33:36.352Z,77.39
2022-11-08T04:36:39.394Z,77.42
2022-11-08T04:39:42.459Z,77.47
2022-11-08T04:42:45.436Z,77.52
2022-11-08T04:45:48.357Z,77.53
2022-11-08T04:48:54.472Z,77.59
2022-11-08T04:51:57.492Z,77.64
2022-11-08T04:55:00.396Z,77.66
2022-11-08T04:58:03.348Z,77.70
2022-11-08T05:01:08.142Z,77.73
2022-11-08T05:04:11.146Z,77.73
2022-11-08T05:07:14.133Z,77.71
2022-11-08T05:10:17.495Z,77.75
2022-11-08T05:13:20.404Z,77.72
2022-11-08T05:16:26.379Z,77.71
2022-11-08T05:19:47.999Z,77.73
2022-11-08T05:23:09.503Z,77.74
2022-11-08T05:26:12.861Z,77.70
2022-11-08T05:29:16.870Z,77.71
2022-11-08T05:32:19.799Z,77.76
2022-11-08T05:35:23.096Z,77.79
2022-11-08T05:38:26.124Z,77.79
2022-11-08T05:41:29.785Z,77.83
2022-11-08T05:44:32.920Z,77.83
2022-11-08T05:47:36.026Z,77.84
2022-11-08T05:50:38.958Z,77.87
2022-11-08T05:53:48.725Z,77.87
2022-11-08T05:56:52.011Z,77.84
2022-11-08T05:59:55.062Z,77.84
2022-11-08T06:02:58.032Z,77.82
2022-11-08T06:06:15.820Z,77.78
2022-11-08T06:09:18.834Z,77.78
2022-11-08T06:12:21.803Z,77.77
2022-11-08T06:15:24.729Z,77.77
2022-11-08T06:18:28.696Z,77.74
2022-11-08T06:21:31.646Z,77.71
2022-11-08T06:24:34.585Z,77.73
2022-11-08T06:27:37.561Z,77.72
2022-11-08T06:30:41.016Z,77.72
2022-11-08T06:33:43.980Z,77.73
2022-11-08T06:36:47.073Z,77.73
2022-11-08T06:39:49.998Z,77.74
2022-11-08T06:42:53.494Z,77.74
2022-11-08T06:46:01.282Z,77.75
2022-11-08T06:49:04.234Z,77.73
2022-11-08T06:52:07.547Z,77.76
2022-11-08T06:55:10.512Z,77.77
2022-11-08T06:58:13.601Z,77.79
2022-11-08T07:01:16.653Z,77.76
2022-11-08T07:04:19.943Z,77.68
2022-11-08T07:07:23.422Z,77.61
2022-11-08T07:10:29.621Z,77.53
2022-11-08T07:13:32.806Z,77.43
2022-11-08T07:16:35.762Z,77.41
2022-11-08T07:19:38.745Z,77.32
2022-11-08T07:22:41.650Z,77.27
2022-11-08T07:25:44.576Z,77.20
2022-11-08T07:28:47.556Z,77.20
2022-11-08T07:31:50.437Z,77.15
2022-11-08T07:34:53.374Z,77.12
2022-11-08T07:37:56.739Z,77.13
2022-11-08T07:41:01.418Z,77.08
2022-11-08T07:44:04.405Z,77.08
2022-11-08T07:47:07.349Z,77.08
2022-11-08T07:50:10.714Z,77.11
2022-11-08T07:53:13.627Z,77.06
2022-11-08T07:56:16.806Z,77.04
2022-11-08T07:59:19.798Z,77.09
2022-11-08T08:02:24.099Z,77.11
2022-11-08T08:05:28.683Z,77.10
2022-11-08T08:11:48.960Z,76.96
2022-11-08T08:14:51.970Z,76.93
2022-11-08T08:17:55.496Z,76.81
2022-11-08T08:20:59.338Z,76.78
2022-11-08T08:24:02.367Z,76.72
2022-11-08T08:27:05.362Z,76.63
2022-11-08T08:30:08.934Z,76.61
2022-11-08T08:33:27.916Z,76.63
2022-11-08T08:36:31.780Z,76.56
2022-11-08T08:39:34.781Z,76.60
2022-11-08T08:42:37.781Z,76.52
2022-11-08T08:45:45.010Z,76.31
2022-11-08T08:48:48.440Z,75.99
2022-11-08T08:51:51.657Z,75.76
2022-11-08T08:54:54.630Z,75.51
2022-11-08T08:57:58.473Z,75.26
2022-11-08T09:04:31.924Z,74.83
2022-11-08T09:07:35.026Z,74.59
2022-11-08T09:10:38.322Z,74.36
2022-11-08T09:13:43.591Z,74.18
2022-11-08T09:16:46.651Z,74.13
2022-11-08T09:19:54.412Z,73.90
2022-11-08T09:23:04.119Z,73.69
2022-11-08T09:26:07.251Z,73.54
2022-11-08T09:29:10.263Z,73.29
2022-11-08T09:32:13.386Z,73.15
2022-11-08T09:35:16.570Z,73.02
2022-11-08T09:38:20.763Z,72.86
2022-11-08T09:41:51.404Z,72.70
2022-11-08T09:45:03.384Z,72.60
2022-11-08T09:48:18.451Z,72.62
2022-11-08T09:51:23.922Z,72.50
2022-11-08T09:54:39.226Z,72.35
2022-11-08T09:58:14.391Z,72.19
2022-11-08T10:01:17.803Z,72.07
2022-11-08T10:04:27.916Z,72.01
2022-11-08T10:07:54.542Z,71.84
2022-11-08T10:11:31.896Z,71.73
2022-11-08T10:14:54.166Z,71.59
2022-11-08T10:18:22.001Z,71.48
2022-11-08T10:21:28.251Z,71.39
2022-11-08T10:24:50.006Z,71.18
2022-11-08T10:27:56.422Z,71.15
2022-11-08T10:30:59.728Z,70.93
2022-11-08T10:34:12.696Z,70.93
2022-11-08T10:37:17.904Z,70.86
2022-11-08T10:40:27.097Z,70.64
2022-11-08T10:43:36.636Z,70.55
2022-11-08T10:46:45.598Z,70.26
2022-11-08T10:49:48.796Z,69.90
2022-11-08T10:53:06.063Z,69.61
2022-11-08T10:56:09.162Z,69.32
2022-11-08T10:59:29.952Z,68.81
2022-11-08T11:02:35.509Z,68.29
2022-11-08T11:05:44.573Z,67.88
2022-11-08T11:08:54.646Z,67.46
2022-11-08T11:12:07.286Z,67.24
2022-11-08T11:15:19.084Z,66.82
2022-11-08T11:18:22.149Z,66.42
2022-11-08T11:21:25.513Z,66.10
2022-11-08T11:24:28.694Z,65.56
2022-11-08T11:27:36.436Z,65.24
2022-11-08T11:30:42.611Z,64.95
2022-11-08T11:33:46.737Z,64.73
2022-11-08T11:37:11.129Z,64.22
2022-11-08T11:40:19.510Z,64.02
2022-11-08T11:43:43.109Z,63.67
2022-11-08T11:46:53.358Z,63.43
2022-11-08T11:50:12.241Z,62.83
2022-11-08T11:53:39.495Z,62.44
2022-11-08T11:57:16.894Z,62.18
2022-11-08T12:00:19.987Z,61.64
2022-11-08T12:03:31.505Z,61.26
2022-11-08T12:06:50.343Z,61.02
2022-11-08T12:10:19.887Z,60.92
2022-11-08T12:13:31.621Z,60.93
2022-11-08T12:16:43.037Z,60.99
2022-11-08T12:20:12.507Z,61.10
2022-11-08T12:23:30.731Z,61.05
2022-11-08T12:26:36.743Z,61.03
2022-11-08T12:30:00.290Z,61.05
2022-11-08T12:33:03.265Z,60.93
2022-11-08T12:36:32.507Z,61.02
2022-11-08T12:39:47.072Z,60.95
2022-11-08T12:43:23.070Z,60.83
2022-11-08T12:46:30.888Z,60.58
2022-11-08T12:49:40.572Z,60.74
2022-11-08T12:52:57.899Z,60.76
2022-11-08T12:56:04.158Z,60.92
2022-11-08T12:59:21.439Z,61.11
2022-11-08T13:02:31.944Z,61.24
2022-11-08T13:05:40.296Z,61.33
2022-11-08T13:09:12.837Z,61.43
2022-11-08T13:12:43.237Z,61.47
2022-11-08T13:16:15.888Z,61.55
2022-11-08T13:19:29.695Z,61.67
2022-11-08T13:22:32.715Z,61.96
2022-11-08T13:25:36.625Z,62.07
2022-11-08T13:28:46.387Z,62.20
2022-11-08T13:32:01.845Z,62.29
2022-11-08T13:35:30.637Z,62.33
2022-11-08T13:39:05.967Z,62.45
2022-11-08T13:42:18.003Z,62.55
2022-11-08T13:45:29.790Z,62.48
2022-11-08T13:48:36.722Z,62.49
2022-11-08T13:51:41.214Z,62.56
2022-11-08T13:54:53.500Z,62.53
2022-11-08T13:58:01.244Z,62.59
2022-11-08T14:01:23.807Z,62.73
2022-11-08T14:04:40.879Z,62.85
2022-11-08T14:07:50.914Z,63.11
2022-11-08T14:15:24.967Z,63.41
2022-11-08T14:18:31.430Z,63.50
2022-11-08T14:21:36.441Z,63.46
2022-11-08T14:24:39.850Z,63.57
2022-11-08T14:27:42.940Z,63.64
2022-11-08T14:30:51.210Z,63.71
2022-11-08T14:33:55.535Z,63.81
2022-11-08T14:37:00.174Z,63.86
2022-11-08T14:40:04.491Z,63.93
2022-11-08T14:43:12.129Z,63.94
2022-11-08T14:46:38.026Z,64.02
2022-11-08T14:49:41.049Z,64.52
2022-11-08T14:52:44.294Z,64.75
2022-11-08T14:55:47.585Z,64.87
2022-11-08T14:58:53.245Z,65.14
2022-11-08T15:01:56.561Z,65.26
2022-11-08T15:04:59.725Z,65.33
2022-11-08T15:08:06.628Z,65.45
2022-11-08T15:11:12.974Z,65.56
2022-11-08T15:14:23.382Z,65.75
2022-11-08T15:17:35.387Z,65.78
2022-11-08T15:20:39.305Z,65.98
2022-11-08T15:23:53.406Z,66.02
2022-11-08T15:27:16.770Z,66.21
2022-11-08T15:30:34.776Z,66.38
2022-11-08T15:33:40.887Z,66.52
2022-11-08T15:36:44.049Z,66.62
2022-11-08T15:39:47.367Z,66.72
2022-11-08T15:42:53.404Z,66.84
2022-11-08T15:45:56.979Z,67.04
2022-11-08T15:49:00.150Z,67.19
2022-11-08T15:52:05.727Z,67.46
2022-11-08T15:55:12.768Z,67.48
2022-11-08T15:58:26.992Z,67.53
2022-11-08T16:01:30.104Z,67.57
2022-11-08T16:04:33.132Z,67.66
2022-11-08T16:07:36.125Z,67.67
2022-11-08T16:10:42.568Z,67.72
2022-11-08T16:13:45.660Z,67.85
2022-11-08T16:16:48.916Z,68.00
2022-11-08T16:19:51.864Z,68.10
2022-11-08T16:22:56.866Z,68.19
2022-11-08T16:26:01.035Z,68.28
2022-11-08T16:29:04.946Z,68.40
2022-11-08T16:32:09.913Z,68.38
2022-11-08T16:35:22.223Z,68.42
2022-11-08T16:38:28.856Z,68.50
2022-11-08T16:41:31.756Z,68.51
2022-11-08T16:44:34.689Z,68.56
2022-11-08T16:47:37.684Z,68.53
2022-11-08T16:50:40.816Z,68.59
2022-11-08T16:53:44.320Z,68.77
2022-11-08T16:56:47.319Z,68.80
2022-11-08T16:59:50.256Z,68.86
2022-11-08T17:02:53.394Z,68.92
2022-11-08T17:05:57.190Z,68.97
2022-11-08T17:09:00.109Z,69.00
2022-11-08T17:12:03.578Z,68.96
2022-11-08T17:15:11.479Z,69.09
2022-11-08T17:18:17.112Z,69.35
2022-11-08T17:24:44.629Z,70.05
2022-11-08T17:27:50.032Z,70.07
2022-11-08T17:30:53.006Z,70.43
2022-11-08T17:33:56.074Z,70.47
2022-11-08T17:36:59.141Z,70.58
2022-11-08T17:40:03.502Z,70.63
2022-11-08T17:43:06.433Z,70.92
2022-11-08T17:46:11.228Z,71.17
2022-11-08T17:49:14.338Z,71.41
2022-11-08T17:52:17.415Z,71.60
2022-11-08T17:55:20.507Z,71.68
2022-11-08T17:58:24.032Z,71.77
2022-11-08T18:01:31.686Z,71.77
2022-11-08T18:04:36.597Z,71.75
2022-11-08T18:07:53.212Z,71.74
2022-11-08T18:11:01.973Z,71.75
2022-11-08T18:14:08.012Z,71.73
2022-11-08T18:17:12.500Z,71.66
2022-11-08T18:20:15.552Z,71.64
2022-11-08T18:23:19.285Z,71.60
2022-11-08T18:26:22.758Z,71.55
2022-11-08T18:29:25.693Z,71.48
2022-11-08T18:32:29.064Z,71.43
2022-11-08T18:35:32.422Z,71.39
2022-11-08T18:38:36.313Z,71.34
2022-11-08T18:41:39.418Z,71.34
2022-11-08T18:44:42.423Z,71.30
2022-11-08T18:47:45.540Z,71.25
2022-11-08T18:50:51.704Z,71.22
2022-11-08T18:53:54.809Z,71.21
2022-11-08T18:56:57.859Z,71.21
2022-11-08T19:00:01.464Z,71.25
2022-11-08T19:03:04.668Z,71.28
2022-11-08T19:06:08.560Z,71.32
2022-11-08T19:09:11.722Z,71.33
2022-11-08T19:12:14.743Z,71.34
2022-11-08T19:15:17.808Z,71.35
2022-11-08T19:18:20.789Z,71.35
2022-11-08T19:21:26.573Z,71.33
2022-11-08T19:24:29.765Z,71.38
2022-11-08T19:27:33.191Z,71.45
2022-11-08T19:30:36.124Z,71.51
2022-11-08T19:33:39.100Z,71.58
2022-11-08T19:36:45.039Z,71.62
2022-11-08T19:39:48.417Z,71.66
2022-11-08T19:42:52.193Z,71.68
2022-11-08T19:45:55.565Z,71.66
2022-11-08T19:49:03.896Z,71.67
2022-11-08T19:52:06.973Z,71.74
2022-11-08T19:55:09.952Z,71.78
2022-11-08T19:58:12.862Z,71.82
2022-11-08T20:01:21.482Z,71.88
2022-11-08T20:04:24.492Z,71.90
2022-11-08T20:07:27.411Z,71.96
2022-11-08T20:10:30.572Z,72.04
2022-11-08T20:13:33.629Z,72.09
2022-11-08T20:16:40.961Z,72.18
2022-11-08T20:19:44.347Z,72.31
2022-11-08T20:22:48.306Z,72.36
2022-11-08T20:25:51.395Z,72.41
2022-11-08T20:28:56.666Z,72.49
2022-11-08T20:32:00.432Z,72.55
2022-11-08T20:35:04.235Z,72.63
2022-11-08T20:38:07.436Z,72.68
2022-11-08T20:41:12.812Z,72.75
2022-11-08T20:44:16.470Z,72.81
2022-11-08T20:47:20.159Z,72.86
2022-11-08T20:50:23.110Z,72.91
2022-11-08T20:53:27.279Z,73.00
2022-11-08T20:56:30.503Z,73.06
2022-11-08T20:59:33.455Z,73.09
2022-11-08T21:02:36.432Z,73.13
2022-11-08T21:05:39.543Z,73.15
2022-11-08T21:09:00.816Z,73.21
2022-11-08T21:12:06.141Z,73.22
2022-11-08T21:15:09.584Z,73.26
2022-11-08T21:18:13.100Z,73.27
2022-11-08T21:21:18.798Z,73.33
2022-11-08T21:24:21.810Z,73.29
2022-11-08T21:27:29.598Z,74.91
2022-11-08T21:30:33.136Z,74.31
2022-11-08T21:33:37.396Z,74.00
2022-11-08T21:36:40.594Z,73.86
2022-11-08T21:39:43.839Z,73.80
2022-11-08T21:42:48.855Z,73.76
2022-11-08T21:45:52.164Z,73.80
2022-11-08T21:48:58.798Z,73.82
2022-11-08T21:52:03.668Z,73.88
2022-11-08T21:55:07.164Z,73.88
2022-11-08T21:58:10.332Z,73.91
2022-11-08T22:01:13.594Z,73.96
2022-11-08T22:04:16.728Z,73.99
2022-11-08T22:07:19.962Z,73.98
2022-11-08T22:10:23.166Z,74.06
2022-11-08T22:13:26.371Z,74.11
2022-11-08T22:16:29.509Z,74.19
2022-11-08T22:19:32.709Z,74.20
2022-11-08T22:22:35.846Z,74.30
2022-11-08T22:25:38.934Z,74.36
2022-11-08T22:28:42.109Z,74.47
2022-11-08T22:31:45.427Z,74.53
2022-11-08T22:34:48.544Z,74.59
2022-11-08T22:37:51.652Z,74.60
2022-11-08T22:40:54.767Z,74.62
2022-11-08T22:43:57.913Z,74.68
2022-11-08T22:47:01.057Z,74.71
2022-11-08T22:50:05.239Z,74.74
2022-11-08T22:53:08.388Z,74.73
2022-11-08T22:56:12.063Z,74.74
2022-11-08T22:59:15.391Z,74.74
2022-11-08T23:02:18.567Z,74.75
2022-11-08T23:05:21.678Z,74.73
2022-11-08T23:08:26.626Z,74.73
2022-11-08T23:11:48.272Z,74.69
2022-11-08T23:15:09.968Z,74.70
2022-11-08T23:18:13.089Z,74.65
2022-11-08T23:21:34.623Z,74.67
2022-11-08T23:24:38.156Z,74.67
2022-11-08T23:28:00.138Z,74.64
2022-11-08T23:31:21.533Z,74.66
2022-11-08T23:34:24.489Z,74.62
2022-11-08T23:37:28.052Z,74.62
2022-11-08T23:40:49.756Z,74.65
2022-11-08T23:44:11.823Z,74.63
2022-11-08T23:47:14.830Z,74.63
2022-11-08T23:50:18.393Z,74.61
2022-11-08T23:53:25.188Z,74.63
2022-11-08T23:56:28.912Z,74.64
2022-11-08T23:59:31.975Z,74.63
